sensor_id;sensor_type;location;lat;lon;timestamp;pressure;altitude;pressure_sealevel;temperature;humidity
54920;BME280;63804;53.120;8.764;2023-05-24T00:02:15;102232.41;;;11.74;63.83
54920;BME280;63804;53.120;8.764;2023-05-24T00:04:42;102232.94;;;11.81;63.59
54920;BME280;63804;53.120;8.764;2023-05-24T00:07:11;102225.69;;;11.84;63.57
54920;BME280;63804;53.120;8.764;2023-05-24T00:09:38;102224.03;;;11.82;63.34
54920;BME280;63804;53.120;8.764;2023-05-24T00:12:05;102223.59;;;11.74;63.75
54920;BME280;63804;53.120;8.764;2023-05-24T00:14:33;102223.34;;;11.78;63.88
54920;BME280;63804;53.120;8.764;2023-05-24T00:17:00;102222.22;;;11.82;63.58
54920;BME280;63804;53.120;8.764;2023-05-24T00:19:27;102222.41;;;11.79;63.51
54920;BME280;63804;53.120;8.764;2023-05-24T00:21:55;102222.06;;;11.69;63.63
54920;BME280;63804;53.120;8.764;2023-05-24T00:24:22;102227.78;;;11.78;63.59
54920;BME280;63804;53.120;8.764;2023-05-24T00:26:49;102230.16;;;11.84;63.35
54920;BME280;63804;53.120;8.764;2023-05-24T00:29:16;102226.69;;;11.82;63.60
54920;BME280;63804;53.120;8.764;2023-05-24T00:31:44;102233.03;;;11.79;63.33
54920;BME280;63804;53.120;8.764;2023-05-24T00:34:11;102220.00;;;11.75;63.56
54920;BME280;63804;53.120;8.764;2023-05-24T00:36:38;102215.19;;;11.65;63.77
54920;BME280;63804;53.120;8.764;2023-05-24T00:39:05;102211.25;;;11.57;64.14
54920;BME280;63804;53.120;8.764;2023-05-24T00:41:32;102217.16;;;11.62;63.95
54920;BME280;63804;53.120;8.764;2023-05-24T00:44:00;102216.75;;;11.69;63.85
54920;BME280;63804;53.120;8.764;2023-05-24T00:46:29;102208.78;;;11.69;63.65
54920;BME280;63804;53.120;8.764;2023-05-24T00:48:57;102203.47;;;11.69;63.96
54920;BME280;63804;53.120;8.764;2023-05-24T00:51:25;102204.25;;;11.71;64.01
54920;BME280;63804;53.120;8.764;2023-05-24T00:53:56;102207.84;;;11.70;63.60
54920;BME280;63804;53.120;8.764;2023-05-24T00:56:23;102208.78;;;11.69;63.79
54920;BME280;63804;53.120;8.764;2023-05-24T00:58:51;102205.97;;;11.73;63.92
54920;BME280;63804;53.120;8.764;2023-05-24T01:01:22;102218.19;;;11.75;63.64
54920;BME280;63804;53.120;8.764;2023-05-24T01:03:52;102211.00;;;11.77;63.85
54920;BME280;63804;53.120;8.764;2023-05-24T01:06:20;102211.28;;;11.73;63.95
54920;BME280;63804;53.120;8.764;2023-05-24T01:09:08;102209.56;;;11.71;63.97
54920;BME280;63804;53.120;8.764;2023-05-24T01:14:24;102214.00;;;11.71;64.19
54920;BME280;63804;53.120;8.764;2023-05-24T01:17:07;102196.09;;;11.75;64.13
54920;BME280;63804;53.120;8.764;2023-05-24T01:22:39;102199.44;;;11.78;63.70
54920;BME280;63804;53.120;8.764;2023-05-24T01:25:26;102202.63;;;11.69;63.95
54920;BME280;63804;53.120;8.764;2023-05-24T01:27:55;102205.28;;;11.69;64.04
54920;BME280;63804;53.120;8.764;2023-05-24T01:30:27;102201.66;;;11.70;63.96
54920;BME280;63804;53.120;8.764;2023-05-24T01:32:55;102198.44;;;11.65;63.98
54920;BME280;63804;53.120;8.764;2023-05-24T01:35:22;102203.78;;;11.63;64.25
54920;BME280;63804;53.120;8.764;2023-05-24T01:37:51;102197.56;;;11.64;64.24
54920;BME280;63804;53.120;8.764;2023-05-24T01:40:18;102189.94;;;11.58;64.12
54920;BME280;63804;53.120;8.764;2023-05-24T01:43:17;102190.78;;;11.75;63.76
54920;BME280;63804;53.120;8.764;2023-05-24T01:51:15;102193.81;;;11.68;63.99
54920;BME280;63804;53.120;8.764;2023-05-24T01:53:45;102192.75;;;11.71;63.87
54920;BME280;63804;53.120;8.764;2023-05-24T01:56:16;102196.09;;;11.75;64.10
54920;BME280;63804;53.120;8.764;2023-05-24T01:58:46;102196.72;;;11.80;63.83
54920;BME280;63804;53.120;8.764;2023-05-24T02:01:14;102199.28;;;11.65;64.27
54920;BME280;63804;53.120;8.764;2023-05-24T02:03:41;102193.97;;;11.65;64.33
54920;BME280;63804;53.120;8.764;2023-05-24T02:06:08;102198.44;;;11.65;64.23
54920;BME280;63804;53.120;8.764;2023-05-24T02:08:36;102198.44;;;11.65;64.29
54920;BME280;63804;53.120;8.764;2023-05-24T02:11:03;102184.81;;;11.71;64.11
54920;BME280;63804;53.120;8.764;2023-05-24T02:13:31;102190.63;;;11.78;64.13
54920;BME280;63804;53.120;8.764;2023-05-24T02:15:58;102182.41;;;11.66;64.33
54920;BME280;63804;53.120;8.764;2023-05-24T02:18:25;102185.31;;;11.62;64.52
54920;BME280;63804;53.120;8.764;2023-05-24T02:20:52;102193.13;;;11.65;64.84
54920;BME280;63804;53.120;8.764;2023-05-24T02:23:20;102190.72;;;11.60;64.80
54920;BME280;63804;53.120;8.764;2023-05-24T02:25:47;102183.34;;;11.50;65.44
54920;BME280;63804;53.120;8.764;2023-05-24T02:28:14;102189.25;;;11.55;64.98
54920;BME280;63804;53.120;8.764;2023-05-24T02:30:41;102178.72;;;11.53;65.34
54920;BME280;63804;53.120;8.764;2023-05-24T02:33:11;102184.38;;;11.63;64.87
54920;BME280;63804;53.120;8.764;2023-05-24T02:35:38;102177.25;;;11.63;64.77
54920;BME280;63804;53.120;8.764;2023-05-24T02:38:07;102178.56;;;11.56;65.29
54920;BME280;63804;53.120;8.764;2023-05-24T02:40:35;102177.38;;;11.62;65.03
54920;BME280;63804;53.120;8.764;2023-05-24T02:43:03;102173.50;;;11.67;64.90
54920;BME280;63804;53.120;8.764;2023-05-24T02:45:30;102180.44;;;11.70;64.91
54920;BME280;63804;53.120;8.764;2023-05-24T02:47:57;102177.72;;;11.71;64.99
54920;BME280;63804;53.120;8.764;2023-05-24T02:50:24;102177.91;;;11.84;64.43
54920;BME280;63804;53.120;8.764;2023-05-24T02:52:51;102181.81;;;11.77;64.54
54920;BME280;63804;53.120;8.764;2023-05-24T02:55:19;102179.31;;;11.74;64.37
54920;BME280;63804;53.120;8.764;2023-05-24T02:57:46;102178.75;;;11.69;64.68
54920;BME280;63804;53.120;8.764;2023-05-24T03:00:14;102179.25;;;11.76;64.29
54920;BME280;63804;53.120;8.764;2023-05-24T03:02:41;102172.47;;;11.70;64.42
54920;BME280;63804;53.120;8.764;2023-05-24T03:05:09;102181.38;;;11.69;64.52
54920;BME280;63804;53.120;8.764;2023-05-24T03:07:36;102177.09;;;11.66;64.74
54920;BME280;63804;53.120;8.764;2023-05-24T03:10:04;102176.34;;;11.64;64.59
54920;BME280;63804;53.120;8.764;2023-05-24T03:12:31;102172.66;;;11.67;64.85
54920;BME280;63804;53.120;8.764;2023-05-24T03:14:58;102174.13;;;11.73;64.58
54920;BME280;63804;53.120;8.764;2023-05-24T03:17:25;102176.66;;;11.74;64.68
54920;BME280;63804;53.120;8.764;2023-05-24T03:19:55;102170.34;;;11.77;64.39
54920;BME280;63804;53.120;8.764;2023-05-24T03:22:22;102168.38;;;11.80;64.30
54920;BME280;63804;53.120;8.764;2023-05-24T03:24:49;102171.09;;;11.79;64.21
54920;BME280;63804;53.120;8.764;2023-05-24T03:27:17;102171.47;;;11.73;64.55
54920;BME280;63804;53.120;8.764;2023-05-24T03:29:44;102172.47;;;11.70;64.66
54920;BME280;63804;53.120;8.764;2023-05-24T03:32:11;102173.06;;;11.75;64.39
54920;BME280;63804;53.120;8.764;2023-05-24T03:34:38;102177.63;;;11.73;64.56
54920;BME280;63804;53.120;8.764;2023-05-24T03:37:05;102168.66;;;11.76;64.34
54920;BME280;63804;53.120;8.764;2023-05-24T03:39:32;102166.16;;;11.73;64.57
54920;BME280;63804;53.120;8.764;2023-05-24T03:41:59;102173.06;;;11.75;64.65
54920;BME280;63804;53.120;8.764;2023-05-24T03:44:27;102165.50;;;11.85;64.34
54920;BME280;63804;53.120;8.764;2023-05-24T03:46:54;102170.63;;;11.72;64.53
54920;BME280;63804;53.120;8.764;2023-05-24T03:49:21;102165.53;;;11.67;64.67
54920;BME280;63804;53.120;8.764;2023-05-24T03:51:48;102163.06;;;11.64;64.84
54920;BME280;63804;53.120;8.764;2023-05-24T03:54:15;102154.06;;;11.67;64.73
54920;BME280;63804;53.120;8.764;2023-05-24T03:56:44;102161.69;;;11.73;64.49
54920;BME280;63804;53.120;8.764;2023-05-24T03:59:11;102173.25;;;11.72;64.48
54920;BME280;63804;53.120;8.764;2023-05-24T04:01:38;102168.19;;;11.67;64.77
54920;BME280;63804;53.120;8.764;2023-05-24T04:04:06;102162.44;;;11.75;64.35
54920;BME280;63804;53.120;8.764;2023-05-24T04:06:33;102168.72;;;11.74;64.50
54920;BME280;63804;53.120;8.764;2023-05-24T04:09:02;102160.84;;;11.73;64.93
54920;BME280;63804;53.120;8.764;2023-05-24T04:11:31;102163.25;;;11.77;64.72
54920;BME280;63804;53.120;8.764;2023-05-24T04:13:59;102163.94;;;11.81;64.70
54920;BME280;63804;53.120;8.764;2023-05-24T04:16:26;102161.59;;;11.75;64.74
54920;BME280;63804;53.120;8.764;2023-05-24T04:18:55;102162.97;;;11.82;64.53
54920;BME280;63804;53.120;8.764;2023-05-24T04:21:22;102163.81;;;11.82;64.40
54920;BME280;63804;53.120;8.764;2023-05-24T04:23:49;102152.91;;;11.88;64.46
54920;BME280;63804;53.120;8.764;2023-05-24T04:26:17;102172.63;;;11.83;64.79
54920;BME280;63804;53.120;8.764;2023-05-24T04:28:44;102169.22;;;11.81;64.86
54920;BME280;63804;53.120;8.764;2023-05-24T04:31:12;102169.13;;;11.82;64.74
54920;BME280;63804;53.120;8.764;2023-05-24T04:33:41;102178.91;;;11.82;64.88
54920;BME280;63804;53.120;8.764;2023-05-24T04:36:08;102176.97;;;11.85;64.74
54920;BME280;63804;53.120;8.764;2023-05-24T04:38:38;102178.59;;;11.88;64.53
54920;BME280;63804;53.120;8.764;2023-05-24T04:41:05;102187.31;;;11.90;64.67
54920;BME280;63804;53.120;8.764;2023-05-24T04:43:33;102184.66;;;11.90;64.85
54920;BME280;63804;53.120;8.764;2023-05-24T04:46:00;102192.38;;;11.94;64.50
54920;BME280;63804;53.120;8.764;2023-05-24T04:48:28;102177.22;;;11.97;64.71
54920;BME280;63804;53.120;8.764;2023-05-24T04:50:56;102183.22;;;12.00;64.26
54920;BME280;63804;53.120;8.764;2023-05-24T04:53:27;102187.09;;;11.94;64.66
54920;BME280;63804;53.120;8.764;2023-05-24T04:55:54;102194.38;;;11.91;64.96
54920;BME280;63804;53.120;8.764;2023-05-24T04:58:21;102193.25;;;11.95;64.55
54920;BME280;63804;53.120;8.764;2023-05-24T05:00:49;102188.16;;;11.90;64.89
54920;BME280;63804;53.120;8.764;2023-05-24T05:03:16;102186.88;;;11.98;64.84
54920;BME280;63804;53.120;8.764;2023-05-24T05:05:43;102200.16;;;11.98;64.88
54920;BME280;63804;53.120;8.764;2023-05-24T05:08:12;102193.66;;;12.03;65.13
54920;BME280;63804;53.120;8.764;2023-05-24T05:10:43;102192.38;;;11.94;65.51
54920;BME280;63804;53.120;8.764;2023-05-24T05:13:10;102195.91;;;11.95;65.73
54920;BME280;63804;53.120;8.764;2023-05-24T05:15:37;102193.72;;;12.02;65.86
54920;BME280;63804;53.120;8.764;2023-05-24T05:18:07;102195.53;;;12.01;66.23
54920;BME280;63804;53.120;8.764;2023-05-24T05:20:34;102191.59;;;11.92;66.68
54920;BME280;63804;53.120;8.764;2023-05-24T05:23:01;102203.75;;;11.97;66.94
54920;BME280;63804;53.120;8.764;2023-05-24T05:25:29;102202.91;;;11.96;66.75
54920;BME280;63804;53.120;8.764;2023-05-24T05:27:56;102206.25;;;12.00;66.99
54920;BME280;63804;53.120;8.764;2023-05-24T05:30:24;102203.06;;;11.93;67.29
54920;BME280;63804;53.120;8.764;2023-05-24T05:32:51;102207.53;;;11.92;67.51
54920;BME280;63804;53.120;8.764;2023-05-24T05:35:18;102199.56;;;11.92;67.89
54920;BME280;63804;53.120;8.764;2023-05-24T05:37:45;102206.69;;;11.92;68.07
54920;BME280;63804;53.120;8.764;2023-05-24T05:40:12;102208.31;;;11.94;68.40
54920;BME280;63804;53.120;8.764;2023-05-24T05:42:40;102197.94;;;11.90;68.14
54920;BME280;63804;53.120;8.764;2023-05-24T05:45:07;102205.22;;;11.86;68.65
54920;BME280;63804;53.120;8.764;2023-05-24T05:47:35;102202.31;;;11.91;68.46
54920;BME280;63804;53.120;8.764;2023-05-24T05:50:02;102203.75;;;11.97;68.50
54920;BME280;63804;53.120;8.764;2023-05-24T05:52:29;102203.06;;;11.93;68.39
54920;BME280;63804;53.120;8.764;2023-05-24T05:54:57;102202.91;;;11.96;68.16
54920;BME280;63804;53.120;8.764;2023-05-24T05:57:25;102209.50;;;12.05;68.20
54920;BME280;63804;53.120;8.764;2023-05-24T05:59:52;102214.13;;;12.01;68.56
54920;BME280;63804;53.120;8.764;2023-05-24T06:02:20;102212.94;;;12.07;68.41
54920;BME280;63804;53.120;8.764;2023-05-24T06:04:50;102215.59;;;12.07;68.14
54920;BME280;63804;53.120;8.764;2023-05-24T06:07:20;102226.53;;;12.16;68.14
54920;BME280;63804;53.120;8.764;2023-05-24T06:09:47;102213.78;;;12.07;68.22
54920;BME280;63804;53.120;8.764;2023-05-24T06:12:15;102224.50;;;12.06;68.33
54920;BME280;63804;53.120;8.764;2023-05-24T06:14:42;102228.44;;;12.14;68.28
54920;BME280;63804;53.120;8.764;2023-05-24T06:17:10;102223.97;;;12.15;68.28
54920;BME280;63804;53.120;8.764;2023-05-24T06:19:37;102221.91;;;12.20;68.62
54920;BME280;63804;53.120;8.764;2023-05-24T06:22:05;102222.00;;;12.18;68.72
54920;BME280;63804;53.120;8.764;2023-05-24T06:24:32;102230.25;;;12.14;68.76
54920;BME280;63804;53.120;8.764;2023-05-24T06:27:00;102239.06;;;12.14;69.04
54920;BME280;63804;53.120;8.764;2023-05-24T06:29:31;102238.88;;;12.17;69.18
54920;BME280;63804;53.120;8.764;2023-05-24T06:31:58;102237.09;;;12.18;68.91
54920;BME280;63804;53.120;8.764;2023-05-24T06:34:25;102234.34;;;12.19;69.35
54920;BME280;63804;53.120;8.764;2023-05-24T06:36:53;102241.88;;;12.27;68.99
54920;BME280;63804;53.120;8.764;2023-05-24T06:39:20;102244.53;;;12.27;68.66
54920;BME280;63804;53.120;8.764;2023-05-24T06:41:47;102254.38;;;12.25;68.96
54920;BME280;63804;53.120;8.764;2023-05-24T06:44:17;102251.53;;;12.28;68.78
54920;BME280;63804;53.120;8.764;2023-05-24T06:46:44;102256.50;;;12.34;69.03
54920;BME280;63804;53.120;8.764;2023-05-24T06:49:12;102252.22;;;12.32;68.97
54920;BME280;63804;53.120;8.764;2023-05-24T06:51:39;102257.53;;;12.32;68.85
54920;BME280;63804;53.120;8.764;2023-05-24T06:54:07;102255.13;;;12.43;68.92
54920;BME280;63804;53.120;8.764;2023-05-24T06:56:34;102254.09;;;12.46;68.45
54920;BME280;63804;53.120;8.764;2023-05-24T06:59:01;102252.19;;;12.48;68.47
54920;BME280;63804;53.120;8.764;2023-05-24T07:01:28;102256.41;;;12.36;68.62
54920;BME280;63804;53.120;8.764;2023-05-24T07:03:56;102256.75;;;12.46;68.46
54920;BME280;63804;53.120;8.764;2023-05-24T07:06:23;102255.72;;;12.48;68.21
54920;BME280;63804;53.120;8.764;2023-05-24T07:08:50;102257.34;;;12.51;68.16
54920;BME280;63804;53.120;8.764;2023-05-24T07:11:18;102261.97;;;12.47;68.12
54920;BME280;63804;53.120;8.764;2023-05-24T07:13:45;102266.34;;;12.48;68.46
54920;BME280;63804;53.120;8.764;2023-05-24T07:16:13;102261.63;;;12.53;68.63
54920;BME280;63804;53.120;8.764;2023-05-24T07:18:40;102266.84;;;12.55;68.00
54920;BME280;63804;53.120;8.764;2023-05-24T07:21:08;102264.13;;;12.56;68.09
54920;BME280;63804;53.120;8.764;2023-05-24T07:23:36;102269.16;;;12.61;68.13
54920;BME280;63804;53.120;8.764;2023-05-24T07:26:03;102264.59;;;12.63;68.08
54920;BME280;63804;53.120;8.764;2023-05-24T07:28:31;102280.63;;;12.61;68.09
54920;BME280;63804;53.120;8.764;2023-05-24T07:30:59;102275.66;;;12.55;68.43
54920;BME280;63804;53.120;8.764;2023-05-24T07:33:26;102271.41;;;12.53;68.70
54920;BME280;63804;53.120;8.764;2023-05-24T07:35:53;102278.25;;;12.57;68.34
54920;BME280;63804;53.120;8.764;2023-05-24T07:38:20;102270.19;;;12.58;68.57
54920;BME280;63804;53.120;8.764;2023-05-24T07:40:48;102265.28;;;12.66;68.60
54920;BME280;63804;53.120;8.764;2023-05-24T07:43:15;102272.19;;;12.85;67.97
54920;BME280;63804;53.120;8.764;2023-05-24T07:45:42;102263.56;;;12.96;67.73
54920;BME280;63804;53.120;8.764;2023-05-24T07:48:10;102272.97;;;12.87;67.83
54920;BME280;63804;53.120;8.764;2023-05-24T07:50:37;102275.78;;;12.84;68.11
54920;BME280;63804;53.120;8.764;2023-05-24T07:53:05;102275.78;;;12.84;68.24
54920;BME280;63804;53.120;8.764;2023-05-24T07:55:33;102283.13;;;12.95;67.94
54920;BME280;63804;53.120;8.764;2023-05-24T07:58:00;102279.34;;;12.99;68.09
54920;BME280;63804;53.120;8.764;2023-05-24T08:00:27;102290.72;;;13.01;67.89
54920;BME280;63804;53.120;8.764;2023-05-24T08:02:55;102292.53;;;13.00;68.09
54920;BME280;63804;53.120;8.764;2023-05-24T08:05:23;102293.03;;;13.07;67.85
54920;BME280;63804;53.120;8.764;2023-05-24T08:07:50;102290.50;;;13.05;68.21
54920;BME280;63804;53.120;8.764;2023-05-24T08:10:21;102295.03;;;13.03;68.23
54920;BME280;63804;53.120;8.764;2023-05-24T08:12:49;102287.59;;;12.94;68.71
54920;BME280;63804;53.120;8.764;2023-05-24T08:15:20;102289.59;;;12.90;68.70
54920;BME280;63804;53.120;8.764;2023-05-24T08:17:48;102291.47;;;12.88;68.72
54920;BME280;63804;53.120;8.764;2023-05-24T08:20:15;102289.41;;;12.93;68.82
54920;BME280;63804;53.120;8.764;2023-05-24T08:22:43;102294.28;;;13.01;68.89
54920;BME280;63804;53.120;8.764;2023-05-24T08:25:11;102295.31;;;12.99;68.47
54920;BME280;63804;53.120;8.764;2023-05-24T08:27:38;102294.28;;;13.01;68.42
54920;BME280;63804;53.120;8.764;2023-05-24T08:30:06;102303.84;;;13.04;68.98
54920;BME280;63804;53.120;8.764;2023-05-24T08:32:36;102306.91;;;12.98;68.78
54920;BME280;63804;53.120;8.764;2023-05-24T08:35:04;102306.63;;;13.02;68.92
54920;BME280;63804;53.120;8.764;2023-05-24T08:37:46;102301.59;;;13.12;68.46
54920;BME280;63804;53.120;8.764;2023-05-24T08:40:14;102306.06;;;13.11;68.66
54920;BME280;63804;53.120;8.764;2023-05-24T08:42:41;102316.97;;;13.07;68.56
54920;BME280;63804;53.120;8.764;2023-05-24T08:45:13;102309.84;;;13.07;68.69
54920;BME280;63804;53.120;8.764;2023-05-24T08:47:40;102316.13;;;13.06;68.84
54920;BME280;63804;53.120;8.764;2023-05-24T08:50:09;102321.28;;;13.09;68.39
54920;BME280;63804;53.120;8.764;2023-05-24T08:52:37;102326.50;;;13.11;68.31
54920;BME280;63804;53.120;8.764;2023-05-24T08:55:06;102322.03;;;13.11;68.38
54920;BME280;63804;53.120;8.764;2023-05-24T08:57:35;102323.56;;;13.15;68.50
54920;BME280;63804;53.120;8.764;2023-05-24T09:00:07;102316.06;;;13.22;68.30
54920;BME280;63804;53.120;8.764;2023-05-24T09:02:38;102319.34;;;13.27;68.33
54920;BME280;63804;53.120;8.764;2023-05-24T09:05:09;102326.97;;;13.33;68.35
54920;BME280;63804;53.120;8.764;2023-05-24T09:07:37;102328.16;;;13.28;68.64
54920;BME280;63804;53.120;8.764;2023-05-24T09:10:06;102325.84;;;13.22;69.20
54920;BME280;63804;53.120;8.764;2023-05-24T09:12:34;102329.13;;;13.27;69.23
54920;BME280;63804;53.120;8.764;2023-05-24T09:15:06;102324.66;;;13.27;69.09
54920;BME280;63804;53.120;8.764;2023-05-24T09:17:34;102325.44;;;13.29;68.97
54920;BME280;63804;53.120;8.764;2023-05-24T09:20:04;102325.94;;;13.36;69.07
54920;BME280;63804;53.120;8.764;2023-05-24T09:22:37;102317.66;;;13.40;68.82
54920;BME280;63804;53.120;8.764;2023-05-24T09:25:08;102325.38;;;13.45;68.91
54920;BME280;63804;53.120;8.764;2023-05-24T09:27:36;102330.19;;;13.38;69.02
54920;BME280;63804;53.120;8.764;2023-05-24T09:30:10;102334.47;;;13.41;68.70
54920;BME280;63804;53.120;8.764;2023-05-24T09:32:39;102342.25;;;13.30;68.55
54920;BME280;63804;53.120;8.764;2023-05-24T09:35:07;102337.44;;;13.36;68.82
54920;BME280;63804;53.120;8.764;2023-05-24T09:37:36;102336.84;;;13.46;69.13
54920;BME280;63804;53.120;8.764;2023-05-24T09:40:05;102336.84;;;13.46;68.73
54920;BME280;63804;53.120;8.764;2023-05-24T09:42:34;102334.50;;;13.55;68.59
54920;BME280;63804;53.120;8.764;2023-05-24T09:47:36;102346.75;;;13.58;68.66
54920;BME280;63804;53.120;8.764;2023-05-24T09:50:10;102343.63;;;13.65;67.67
54920;BME280;63804;53.120;8.764;2023-05-24T09:52:38;102342.41;;;13.71;67.08
54920;BME280;63804;53.120;8.764;2023-05-24T09:55:14;102354.47;;;13.91;66.46
54920;BME280;63804;53.120;8.764;2023-05-24T09:57:43;102345.91;;;14.14;65.69
54920;BME280;63804;53.120;8.764;2023-05-24T10:00:11;102346.25;;;14.37;65.05
54920;BME280;63804;53.120;8.764;2023-05-24T10:03:03;102346.81;;;14.56;64.42
54920;BME280;63804;53.120;8.764;2023-05-24T10:05:30;102343.13;;;14.72;63.83
54920;BME280;63804;53.120;8.764;2023-05-24T10:07:59;102348.03;;;14.92;62.84
54920;BME280;63804;53.120;8.764;2023-05-24T10:10:28;102345.72;;;14.73;63.61
54920;BME280;63804;53.120;8.764;2023-05-24T10:12:56;102337.09;;;14.82;63.19
54920;BME280;63804;53.120;8.764;2023-05-24T10:15:24;102338.22;;;15.05;62.37
54920;BME280;63804;53.120;8.764;2023-05-24T10:17:55;102337.59;;;15.15;61.75
54920;BME280;63804;53.120;8.764;2023-05-24T10:20:23;102345.00;;;15.24;61.75
54920;BME280;63804;53.120;8.764;2023-05-24T10:22:56;102356.19;;;15.03;62.27
54920;BME280;63804;53.120;8.764;2023-05-24T10:25:27;102348.53;;;14.84;62.57
54920;BME280;63804;53.120;8.764;2023-05-24T10:27:56;102349.91;;;14.77;62.93
54920;BME280;63804;53.120;8.764;2023-05-24T10:30:34;102356.00;;;14.65;62.90
54920;BME280;63804;53.120;8.764;2023-05-24T10:33:05;102350.63;;;14.52;63.87
54920;BME280;63804;53.120;8.764;2023-05-24T10:35:34;102350.91;;;14.62;63.82
54920;BME280;63804;53.120;8.764;2023-05-24T10:38:05;102348.78;;;14.67;63.40
54920;BME280;63804;53.120;8.764;2023-05-24T10:40:33;102347.44;;;14.74;63.01
54920;BME280;63804;53.120;8.764;2023-05-24T10:43:04;102346.00;;;14.69;63.30
54920;BME280;63804;53.120;8.764;2023-05-24T10:45:40;102338.34;;;14.50;63.76
54920;BME280;63804;53.120;8.764;2023-05-24T10:50:35;102341.59;;;14.26;64.41
54920;BME280;63804;53.120;8.764;2023-05-24T10:53:13;102351.03;;;14.32;63.57
54920;BME280;63804;53.120;8.764;2023-05-24T10:56:04;102351.69;;;14.35;63.18
54920;BME280;63804;53.120;8.764;2023-05-24T11:01:30;102349.78;;;14.37;63.00
54920;BME280;63804;53.120;8.764;2023-05-24T11:04:15;102358.13;;;14.60;62.64
54920;BME280;63804;53.120;8.764;2023-05-24T11:06:46;102359.84;;;14.61;62.22
54920;BME280;63804;53.120;8.764;2023-05-24T11:09:16;102353.22;;;14.54;62.26
54920;BME280;63804;53.120;8.764;2023-05-24T11:11:47;102358.06;;;14.61;62.18
54920;BME280;63804;53.120;8.764;2023-05-24T11:14:28;102363.72;;;14.70;61.38
54920;BME280;63804;53.120;8.764;2023-05-24T11:16:59;102357.75;;;14.66;61.61
54920;BME280;63804;53.120;8.764;2023-05-24T11:19:35;102364.38;;;14.73;61.31
54920;BME280;63804;53.120;8.764;2023-05-24T11:22:06;102361.81;;;14.72;61.24
54920;BME280;63804;53.120;8.764;2023-05-24T11:24:34;102361.59;;;14.75;61.28
54920;BME280;63804;53.120;8.764;2023-05-24T11:27:02;102359.78;;;14.75;61.29
54920;BME280;63804;53.120;8.764;2023-05-24T11:29:29;102361.16;;;14.68;61.46
54920;BME280;63804;53.120;8.764;2023-05-24T11:32:06;102365.47;;;14.56;61.65
54920;BME280;63804;53.120;8.764;2023-05-24T11:34:45;102360.44;;;14.52;61.89
54920;BME280;63804;53.120;8.764;2023-05-24T11:37:13;102372.81;;;14.53;62.00
54920;BME280;63804;53.120;8.764;2023-05-24T11:39:49;102367.28;;;14.56;62.16
54920;BME280;63804;53.120;8.764;2023-05-24T11:42:20;102374.31;;;14.57;61.98
54920;BME280;63804;53.120;8.764;2023-05-24T11:44:50;102373.09;;;14.62;61.81
54920;BME280;63804;53.120;8.764;2023-05-24T11:47:19;102374.78;;;14.63;61.75
54920;BME280;63804;53.120;8.764;2023-05-24T11:49:50;102375.84;;;14.47;62.30
54920;BME280;63804;53.120;8.764;2023-05-24T11:52:18;102384.59;;;14.34;62.68
54920;BME280;63804;53.120;8.764;2023-05-24T11:54:46;102383.09;;;14.30;62.82
54920;BME280;63804;53.120;8.764;2023-05-24T11:57:13;102387.56;;;14.30;62.75
54920;BME280;63804;53.120;8.764;2023-05-24T11:59:45;102390.81;;;14.35;62.73
54920;BME280;63804;53.120;8.764;2023-05-24T12:02:12;102392.34;;;14.25;63.26
54920;BME280;63804;53.120;8.764;2023-05-24T12:04:40;102394.22;;;14.23;63.14
54920;BME280;63804;53.120;8.764;2023-05-24T12:07:10;102397.84;;;14.22;63.32
54920;BME280;63804;53.120;8.764;2023-05-24T12:09:41;102390.25;;;14.01;63.65
54920;BME280;63804;53.120;8.764;2023-05-24T12:12:08;102393.09;;;13.98;63.95
54920;BME280;63804;53.120;8.764;2023-05-24T12:14:38;102397.97;;;14.06;63.92
54920;BME280;63804;53.120;8.764;2023-05-24T12:17:13;102399.00;;;14.03;63.61
54920;BME280;63804;53.120;8.764;2023-05-24T12:19:47;102395.97;;;14.09;63.34
54920;BME280;63804;53.120;8.764;2023-05-24T12:22:16;102394.03;;;14.11;63.40
54920;BME280;63804;53.120;8.764;2023-05-24T12:24:43;102399.50;;;14.24;63.11
54920;BME280;63804;53.120;8.764;2023-05-24T12:27:10;102386.72;;;14.29;62.66
54920;BME280;63804;53.120;8.764;2023-05-24T12:29:39;102389.56;;;14.41;62.46
54920;BME280;63804;53.120;8.764;2023-05-24T12:32:11;102390.41;;;14.70;61.85
54920;BME280;63804;53.120;8.764;2023-05-24T12:34:41;102386.38;;;14.77;61.48
54920;BME280;63804;53.120;8.764;2023-05-24T12:37:10;102393.91;;;14.70;61.59
54920;BME280;63804;53.120;8.764;2023-05-24T12:39:41;102399.13;;;14.72;61.76
54920;BME280;63804;53.120;8.764;2023-05-24T12:42:13;102409.22;;;14.81;61.77
54920;BME280;63804;53.120;8.764;2023-05-24T12:44:42;102401.06;;;14.70;61.78
54920;BME280;63804;53.120;8.764;2023-05-24T12:47:11;102402.78;;;14.71;61.80
54920;BME280;63804;53.120;8.764;2023-05-24T12:49:38;102399.31;;;14.83;61.46
54920;BME280;63804;53.120;8.764;2023-05-24T12:52:06;102404.63;;;15.10;60.91
54920;BME280;63804;53.120;8.764;2023-05-24T12:54:36;102404.88;;;15.20;60.50
54920;BME280;63804;53.120;8.764;2023-05-24T12:57:03;102403.59;;;15.25;60.30
54920;BME280;63804;53.120;8.764;2023-05-24T12:59:32;102406.44;;;15.09;60.50
54920;BME280;63804;53.120;8.764;2023-05-24T13:01:59;102418.75;;;15.25;60.30
54920;BME280;63804;53.120;8.764;2023-05-24T13:04:26;102415.44;;;15.21;60.17
54920;BME280;63804;53.120;8.764;2023-05-24T13:06:54;102408.94;;;15.25;60.26
54920;BME280;63804;53.120;8.764;2023-05-24T13:09:21;102408.28;;;15.22;59.79
54920;BME280;63804;53.120;8.764;2023-05-24T13:11:50;102400.00;;;15.26;59.21
54920;BME280;63804;53.120;8.764;2023-05-24T13:14:18;102401.28;;;15.33;58.72
54920;BME280;63804;53.120;8.764;2023-05-24T13:16:46;102399.16;;;15.39;58.76
54920;BME280;63804;53.120;8.764;2023-05-24T13:19:13;102399.91;;;15.41;58.65